createdAt,value
2022-12-31T00:00:11.678Z,1.02
2022-12-31T00:02:38.271Z,1.27
2022-12-31T00:05:05.334Z,1.30
2022-12-31T00:10:02.877Z,1.20
2022-12-31T00:12:31.762Z,1.52
2022-12-31T00:14:58.296Z,1.38
2022-12-31T00:17:24.800Z,1.50
2022-12-31T00:19:51.380Z,1.20
2022-12-31T00:22:17.961Z,1.20
2022-12-31T00:24:49.454Z,1.20
2022-12-31T00:27:18.380Z,1.30
2022-12-31T00:29:44.953Z,1.30
2022-12-31T00:32:13.803Z,1.30
2022-12-31T00:34:40.372Z,1.23
2022-12-31T00:37:06.993Z,1.10
2022-12-31T00:39:33.696Z,1.10
2022-12-31T00:42:00.292Z,1.20
2022-12-31T00:44:26.997Z,1.25
2022-12-31T00:46:54.018Z,0.90
2022-12-31T00:49:20.568Z,1.00
2022-12-31T00:51:47.473Z,0.90
2022-12-31T00:54:14.357Z,1.00
2022-12-31T00:56:40.983Z,0.80
2022-12-31T00:59:09.819Z,1.08
2022-12-31T01:01:39.710Z,1.00
2022-12-31T01:04:18.168Z,1.00
2022-12-31T01:06:47.525Z,0.52
2022-12-31T01:09:16.087Z,0.40
2022-12-31T01:11:42.719Z,0.30
2022-12-31T01:14:15.155Z,0.30
2022-12-31T01:16:50.367Z,0.30
2022-12-31T01:19:20.654Z,0.47
2022-12-31T01:21:48.329Z,0.32
2022-12-31T01:24:15.795Z,0.30
2022-12-31T01:26:45.996Z,0.40
2022-12-31T01:29:16.973Z,0.47
2022-12-31T01:32:02.077Z,0.30
2022-12-31T01:34:31.071Z,0.43
2022-12-31T01:36:57.857Z,0.70
2022-12-31T01:39:24.767Z,0.40
2022-12-31T01:41:51.343Z,0.30
2022-12-31T01:44:29.489Z,0.35
2022-12-31T01:46:58.911Z,0.63
2022-12-31T01:49:39.488Z,0.38
2022-12-31T01:52:17.988Z,0.40
2022-12-31T01:54:59.651Z,0.80
2022-12-31T01:57:27.485Z,0.38
2022-12-31T01:59:56.408Z,0.50
2022-12-31T02:02:23.212Z,0.50
2022-12-31T02:04:53.342Z,0.70
2022-12-31T02:07:20.081Z,0.32
2022-12-31T02:09:46.825Z,0.60
2022-12-31T02:12:15.764Z,0.60
2022-12-31T02:14:51.958Z,0.68
2022-12-31T02:17:33.016Z,0.73
2022-12-31T02:20:28.976Z,0.70
2022-12-31T02:23:17.161Z,0.60
2022-12-31T02:26:05.304Z,0.60
2022-12-31T02:28:47.149Z,0.52
2022-12-31T02:31:36.814Z,0.60
2022-12-31T02:34:16.314Z,0.60
2022-12-31T02:36:46.050Z,0.70
2022-12-31T02:39:14.559Z,0.88
2022-12-31T02:41:50.019Z,0.80
2022-12-31T02:44:27.301Z,0.80
2022-12-31T02:47:02.922Z,0.70
2022-12-31T02:49:57.309Z,0.70
2022-12-31T02:52:32.868Z,0.70
2022-12-31T02:55:11.441Z,0.60
2022-12-31T02:57:49.920Z,0.55
2022-12-31T03:00:36.744Z,0.60
2022-12-31T03:03:08.217Z,0.57
2022-12-31T03:05:40.677Z,0.50
2022-12-31T03:08:07.307Z,0.60
2022-12-31T03:10:34.750Z,0.60
2022-12-31T03:13:01.316Z,0.82
2022-12-31T03:15:33.982Z,0.70
2022-12-31T03:18:03.667Z,0.73
2022-12-31T03:20:53.326Z,0.93
2022-12-31T03:23:27.730Z,0.90
2022-12-31T03:25:55.106Z,0.90
2022-12-31T03:28:24.226Z,0.90
2022-12-31T03:30:53.497Z,0.85
2022-12-31T03:33:21.682Z,0.80
2022-12-31T03:35:49.194Z,0.90
2022-12-31T03:38:16.479Z,0.80
2022-12-31T03:40:50.435Z,1.10
2022-12-31T03:43:20.719Z,0.77
2022-12-31T03:45:51.936Z,0.90
2022-12-31T03:48:19.081Z,0.90
2022-12-31T03:50:46.003Z,0.98
2022-12-31T03:53:14.864Z,0.90
2022-12-31T03:55:41.859Z,1.10
2022-12-31T03:58:08.597Z,1.10
2022-12-31T04:00:35.190Z,1.00
2022-12-31T04:03:01.941Z,1.25
2022-12-31T04:05:28.656Z,1.33
2022-12-31T04:07:55.902Z,1.40
2022-12-31T04:10:22.495Z,1.45
2022-12-31T04:12:51.291Z,1.40
2022-12-31T04:15:20.433Z,2.60
2022-12-31T04:17:48.328Z,1.50
2022-12-31T04:20:15.983Z,1.40
2022-12-31T04:22:42.625Z,1.35
2022-12-31T04:25:12.991Z,1.30
2022-12-31T04:27:41.369Z,1.25
2022-12-31T04:30:08.604Z,1.60
2022-12-31T04:32:37.475Z,1.60
2022-12-31T04:35:04.462Z,1.10
2022-12-31T04:37:34.109Z,1.20
2022-12-31T04:40:05.863Z,1.10
2022-12-31T04:42:33.842Z,1.27
2022-12-31T04:45:00.436Z,1.50
2022-12-31T04:47:29.666Z,1.00
2022-12-31T04:49:56.192Z,1.13
2022-12-31T04:52:23.260Z,1.30
2022-12-31T04:54:50.229Z,1.10
2022-12-31T04:57:16.851Z,1.20
2022-12-31T04:59:43.493Z,1.50
2022-12-31T05:02:10.319Z,1.30
2022-12-31T05:04:37.172Z,1.58
2022-12-31T05:07:03.871Z,1.40
2022-12-31T05:09:31.065Z,1.38
2022-12-31T05:11:58.061Z,1.70
2022-12-31T05:14:25.012Z,1.60
2022-12-31T05:16:52.102Z,1.40
2022-12-31T05:19:21.188Z,1.15
2022-12-31T05:22:07.721Z,1.70
2022-12-31T05:24:34.436Z,1.65
2022-12-31T05:27:01.064Z,1.20
2022-12-31T05:29:27.641Z,1.17
2022-12-31T05:31:56.490Z,1.10
2022-12-31T05:34:23.051Z,1.05
2022-12-31T05:36:49.624Z,1.00
2022-12-31T05:39:16.369Z,1.00
2022-12-31T05:41:42.886Z,0.90
2022-12-31T05:44:10.787Z,1.10
2022-12-31T05:46:37.316Z,1.00
2022-12-31T05:49:03.815Z,1.00
2022-12-31T05:51:30.377Z,1.00
2022-12-31T05:53:57.006Z,1.08
2022-12-31T05:56:26.085Z,1.05
2022-12-31T05:58:52.694Z,1.15
2022-12-31T06:01:19.244Z,1.10
2022-12-31T06:03:46.672Z,1.02
2022-12-31T06:06:13.319Z,1.08
2022-12-31T06:08:39.915Z,1.05
2022-12-31T06:11:06.446Z,1.20
2022-12-31T06:13:37.948Z,0.90
2022-12-31T06:16:08.756Z,0.90
2022-12-31T06:18:37.559Z,0.73
2022-12-31T06:21:04.446Z,0.70
2022-12-31T06:23:31.355Z,0.60
2022-12-31T06:26:04.476Z,0.63
2022-12-31T06:28:31.227Z,0.50
2022-12-31T06:31:05.091Z,0.60
2022-12-31T06:33:37.492Z,0.70
2022-12-31T06:36:06.591Z,0.68
2022-12-31T06:38:38.766Z,0.77
2022-12-31T06:41:06.981Z,0.60
2022-12-31T06:43:34.684Z,0.60
2022-12-31T06:46:02.522Z,0.60
2022-12-31T06:48:29.166Z,0.38
2022-12-31T06:50:55.836Z,0.45
2022-12-31T06:53:22.691Z,0.47
2022-12-31T06:55:50.273Z,0.50
2022-12-31T06:58:17.529Z,0.30
2022-12-31T07:01:03.880Z,0.38
2022-12-31T07:03:44.369Z,0.35
2022-12-31T07:06:17.365Z,0.60
2022-12-31T07:08:59.385Z,0.50
2022-12-31T07:11:51.482Z,0.40
2022-12-31T07:14:35.009Z,0.20
2022-12-31T07:17:25.117Z,0.50
2022-12-31T07:20:13.098Z,0.40
2022-12-31T07:22:42.883Z,0.40
2022-12-31T07:25:17.582Z,0.50
2022-12-31T07:28:21.107Z,0.70
2022-12-31T07:31:06.884Z,0.50
2022-12-31T07:33:43.805Z,0.60
2022-12-31T07:36:31.770Z,0.55
2022-12-31T07:39:35.543Z,0.50
2022-12-31T07:42:21.107Z,0.60
2022-12-31T07:45:17.581Z,0.77
2022-12-31T07:47:44.412Z,0.77
2022-12-31T07:50:19.045Z,0.63
2022-12-31T07:52:46.713Z,0.60
2022-12-31T07:55:13.391Z,0.70
2022-12-31T07:57:55.574Z,0.90
2022-12-31T08:00:22.804Z,0.70
2022-12-31T08:03:00.497Z,0.60
2022-12-31T08:05:39.582Z,0.50
2022-12-31T08:08:19.660Z,0.52
2022-12-31T08:11:25.253Z,0.50
2022-12-31T08:13:53.918Z,1.05
2022-12-31T08:16:21.789Z,0.43
2022-12-31T08:18:48.695Z,0.55
2022-12-31T08:21:32.718Z,0.50
2022-12-31T08:24:27.446Z,0.50
2022-12-31T08:26:59.461Z,0.40
2022-12-31T08:29:44.472Z,0.20
2022-12-31T08:32:30.602Z,0.60
2022-12-31T08:35:28.277Z,0.45
2022-12-31T08:38:04.473Z,0.43
2022-12-31T08:40:37.372Z,0.40
2022-12-31T08:43:28.733Z,0.60
2022-12-31T08:45:57.842Z,0.60
2022-12-31T08:48:35.333Z,0.60
2022-12-31T08:51:02.237Z,0.47
2022-12-31T08:53:32.050Z,0.73
2022-12-31T08:56:21.817Z,0.47
2022-12-31T08:59:11.711Z,0.68
2022-12-31T09:01:59.014Z,0.50
2022-12-31T09:04:57.422Z,0.40
2022-12-31T09:07:38.511Z,0.57
2022-12-31T09:10:34.000Z,0.47
2022-12-31T09:13:06.655Z,0.77
2022-12-31T09:15:59.066Z,0.80
2022-12-31T09:18:31.241Z,0.80
2022-12-31T09:20:59.823Z,0.50
2022-12-31T09:23:26.695Z,0.93
2022-12-31T09:26:00.688Z,1.63
2022-12-31T09:28:39.030Z,1.00
2022-12-31T09:31:20.181Z,0.77
2022-12-31T09:34:05.003Z,0.70
2022-12-31T09:36:41.616Z,0.50
2022-12-31T09:39:21.850Z,0.70
2022-12-31T09:41:57.678Z,0.60
2022-12-31T09:44:36.345Z,0.30
2022-12-31T09:47:30.670Z,0.40
2022-12-31T09:50:20.786Z,0.73
2022-12-31T09:53:08.725Z,0.95
2022-12-31T09:55:48.496Z,0.57
2022-12-31T09:58:17.755Z,0.85
2022-12-31T10:01:00.116Z,0.65
2022-12-31T10:03:40.896Z,0.70
2022-12-31T10:06:21.570Z,1.00
2022-12-31T10:09:10.822Z,0.77
2022-12-31T10:11:59.023Z,0.73
2022-12-31T10:14:32.634Z,0.77
2022-12-31T10:17:16.080Z,1.27
2022-12-31T10:20:08.874Z,0.77
2022-12-31T10:22:56.715Z,1.10
2022-12-31T10:25:51.159Z,0.85
2022-12-31T10:28:48.937Z,0.90
2022-12-31T10:31:40.245Z,1.00
2022-12-31T10:34:25.634Z,0.70
2022-12-31T10:37:17.285Z,1.05
2022-12-31T10:40:07.016Z,0.90
2022-12-31T10:43:02.769Z,4.82
2022-12-31T10:45:50.816Z,1.90
2022-12-31T10:49:08.655Z,1.08
2022-12-31T10:52:09.115Z,1.35
2022-12-31T10:54:50.748Z,1.10
2022-12-31T10:57:26.637Z,1.10
2022-12-31T10:59:59.129Z,1.10
2022-12-31T11:02:41.022Z,0.90
2022-12-31T11:05:26.054Z,1.05
2022-12-31T11:08:14.026Z,1.02
2022-12-31T11:11:11.761Z,1.02
2022-12-31T11:13:53.555Z,0.93
2022-12-31T11:16:24.441Z,1.30
2022-12-31T11:19:06.538Z,0.88
2022-12-31T11:21:57.747Z,0.80
2022-12-31T11:24:47.378Z,1.08
2022-12-31T11:27:47.616Z,0.70
2022-12-31T11:30:38.005Z,0.80
2022-12-31T11:33:48.415Z,0.88
2022-12-31T11:36:28.626Z,1.27
2022-12-31T11:39:30.710Z,0.88
2022-12-31T11:42:11.310Z,0.88
2022-12-31T11:44:45.333Z,1.40
2022-12-31T11:47:32.239Z,1.55
2022-12-31T11:50:33.291Z,1.00
2022-12-31T11:53:11.971Z,0.90
2022-12-31T11:56:04.373Z,1.05
2022-12-31T11:58:31.539Z,0.90
2022-12-31T12:01:11.869Z,0.93
2022-12-31T12:03:47.431Z,1.10
2022-12-31T12:06:17.150Z,1.83
2022-12-31T12:08:45.011Z,1.20
2022-12-31T12:11:34.279Z,2.00
2022-12-31T12:14:00.928Z,1.10
2022-12-31T12:16:31.260Z,1.00
2022-12-31T12:19:18.856Z,1.08
2022-12-31T12:21:49.320Z,2.15
2022-12-31T12:24:31.000Z,1.17
2022-12-31T12:26:57.995Z,1.15
2022-12-31T12:29:32.257Z,1.20
2022-12-31T12:32:15.021Z,1.50
2022-12-31T12:34:47.724Z,1.20
2022-12-31T12:37:25.440Z,1.17
2022-12-31T12:40:04.311Z,1.10
2022-12-31T12:42:34.144Z,1.10
2022-12-31T12:45:07.781Z,1.40
2022-12-31T12:47:34.983Z,1.10
2022-12-31T12:50:01.702Z,1.33
2022-12-31T12:52:49.298Z,1.50
2022-12-31T12:55:19.163Z,3.95
2022-12-31T12:58:06.092Z,1.30
2022-12-31T13:00:51.458Z,1.20
2022-12-31T13:03:59.932Z,1.25
2022-12-31T13:06:36.922Z,1.30
2022-12-31T13:09:10.492Z,1.58
2022-12-31T13:11:50.317Z,1.42
2022-12-31T13:14:33.155Z,1.58
2022-12-31T13:17:06.286Z,1.13
2022-12-31T13:19:42.867Z,1.23
2022-12-31T13:22:36.412Z,1.17
2022-12-31T13:25:39.609Z,1.05
2022-12-31T13:28:12.172Z,1.50
2022-12-31T13:30:49.385Z,1.15
2022-12-31T13:33:36.501Z,1.45
2022-12-31T13:36:07.895Z,1.50
2022-12-31T13:38:42.367Z,1.90
2022-12-31T13:41:17.321Z,1.15
2022-12-31T13:44:08.875Z,1.33
2022-12-31T13:46:51.543Z,1.23
2022-12-31T13:49:24.280Z,1.10
2022-12-31T13:52:32.387Z,1.45
2022-12-31T13:55:19.353Z,1.00
2022-12-31T13:57:57.780Z,1.55
2022-12-31T14:00:27.557Z,1.20
2022-12-31T14:03:03.865Z,1.50
2022-12-31T14:05:41.984Z,1.15
2022-12-31T14:08:09.852Z,1.52
2022-12-31T14:10:51.413Z,1.25
2022-12-31T14:13:34.925Z,2.58
2022-12-31T14:16:26.099Z,2.80
2022-12-31T14:19:02.791Z,1.92
2022-12-31T14:21:40.124Z,1.30
2022-12-31T14:24:30.534Z,1.20
2022-12-31T14:27:02.569Z,1.90
2022-12-31T14:29:37.394Z,1.60
2022-12-31T14:32:44.703Z,1.90
2022-12-31T14:35:29.250Z,1.30
2022-12-31T14:38:03.435Z,2.13
2022-12-31T14:40:48.867Z,1.38
2022-12-31T14:43:52.498Z,1.58
2022-12-31T14:46:45.206Z,1.45
2022-12-31T14:49:36.812Z,1.85
2022-12-31T14:52:19.451Z,2.22
2022-12-31T14:54:46.190Z,1.80
2022-12-31T14:57:28.489Z,2.22
2022-12-31T15:00:01.079Z,1.42
2022-12-31T15:02:33.813Z,1.65
2022-12-31T15:05:22.592Z,1.80
2022-12-31T15:07:49.076Z,1.70
2022-12-31T15:10:49.108Z,2.15
2022-12-31T15:13:25.075Z,2.00
2022-12-31T15:16:00.980Z,1.58
2022-12-31T15:18:46.097Z,67.97
2022-12-31T15:21:28.002Z,6.35
2022-12-31T15:23:55.324Z,3.20
2022-12-31T15:26:34.840Z,2.05
2022-12-31T15:29:05.223Z,1.38
2022-12-31T15:31:35.618Z,2.03
2022-12-31T15:34:07.683Z,1.65
2022-12-31T15:36:40.837Z,1.98
2022-12-31T15:39:10.421Z,1.60
2022-12-31T15:42:10.264Z,2.13
2022-12-31T15:44:55.448Z,1.70
2022-12-31T15:47:24.966Z,2.13
2022-12-31T15:49:53.831Z,2.10
2022-12-31T15:52:30.473Z,1.60
2022-12-31T15:54:58.489Z,1.95
2022-12-31T15:57:40.468Z,1.90
2022-12-31T16:00:20.403Z,1.58
2022-12-31T16:02:48.447Z,1.95
2022-12-31T16:05:25.107Z,1.50
2022-12-31T16:07:56.545Z,3.80
2022-12-31T16:10:30.138Z,2.50
2022-12-31T16:13:01.557Z,1.83
2022-12-31T16:15:34.304Z,3.30
2022-12-31T16:18:06.658Z,2.70
2022-12-31T16:20:34.740Z,1.90
2022-12-31T16:23:03.430Z,2.20
2022-12-31T16:25:33.490Z,1.92
2022-12-31T16:28:02.602Z,2.45
2022-12-31T16:30:32.124Z,2.28
2022-12-31T16:33:05.091Z,2.05
2022-12-31T16:35:34.622Z,1.88
2022-12-31T16:38:07.899Z,2.00
2022-12-31T16:40:42.325Z,2.50
2022-12-31T16:43:38.966Z,7.18
2022-12-31T16:46:15.187Z,76.45
2022-12-31T16:48:49.805Z,44.78
2022-12-31T16:51:20.307Z,30.83
2022-12-31T16:53:48.310Z,29.05
2022-12-31T16:56:30.141Z,21.70
2022-12-31T16:59:03.796Z,16.75
2022-12-31T17:01:36.418Z,22.48
2022-12-31T17:04:10.545Z,27.85
2022-12-31T17:06:39.617Z,21.95
2022-12-31T17:09:30.766Z,8.32
2022-12-31T17:12:07.794Z,11.20
2022-12-31T17:14:48.436Z,6.47
2022-12-31T17:17:25.670Z,6.80
2022-12-31T17:19:58.437Z,8.13
2022-12-31T17:22:40.544Z,12.63
2022-12-31T17:25:28.722Z,9.73
2022-12-31T17:28:05.619Z,4.88
2022-12-31T17:30:35.244Z,9.98
2022-12-31T17:33:24.903Z,5.03
2022-12-31T17:35:57.476Z,7.30
2022-12-31T17:38:24.221Z,5.80
2022-12-31T17:41:15.449Z,6.88
2022-12-31T17:43:44.974Z,7.10
2022-12-31T17:46:18.980Z,5.72
2022-12-31T17:48:56.822Z,6.38
2022-12-31T17:51:24.665Z,4.30
2022-12-31T17:53:51.403Z,4.93
2022-12-31T17:56:19.530Z,4.90
2022-12-31T17:58:52.689Z,4.20
2022-12-31T18:01:21.696Z,3.10
2022-12-31T18:03:48.792Z,2.50
2022-12-31T18:06:16.982Z,3.42
2022-12-31T18:08:43.818Z,4.95
2022-12-31T18:11:22.168Z,4.07
2022-12-31T18:13:49.573Z,5.68
2022-12-31T18:16:18.926Z,6.00
2022-12-31T18:18:47.877Z,8.02
2022-12-31T18:21:36.091Z,5.35
2022-12-31T18:26:33.012Z,2.70
2022-12-31T18:29:05.343Z,4.72
2022-12-31T18:31:32.059Z,3.85
2022-12-31T18:33:59.325Z,2.65
2022-12-31T18:36:28.866Z,3.95
2022-12-31T18:38:57.890Z,3.80
2022-12-31T18:41:27.664Z,3.70
2022-12-31T18:43:55.387Z,3.92
2022-12-31T18:46:24.260Z,2.85
2022-12-31T18:48:51.065Z,3.55
2022-12-31T18:51:20.487Z,4.75
2022-12-31T18:53:47.514Z,11.48
2022-12-31T18:56:22.062Z,32.63
2022-12-31T18:58:50.942Z,7.55
2022-12-31T19:01:28.365Z,5.07
2022-12-31T19:04:11.340Z,12.63
2022-12-31T19:06:37.958Z,8.30
2022-12-31T19:09:13.269Z,4.65
2022-12-31T19:11:53.786Z,3.55
2022-12-31T19:14:24.231Z,4.88
2022-12-31T19:16:53.240Z,3.85
2022-12-31T19:19:20.748Z,3.45
2022-12-31T19:21:47.658Z,3.40
2022-12-31T19:24:18.549Z,3.53
2022-12-31T19:26:45.168Z,3.20
2022-12-31T19:29:24.098Z,3.30
2022-12-31T19:31:51.022Z,3.65
2022-12-31T19:34:17.644Z,50.58
2022-12-31T19:36:44.490Z,111.72
2022-12-31T19:39:16.897Z,36.83
2022-12-31T19:41:44.143Z,32.15
2022-12-31T19:44:18.555Z,25.45
2022-12-31T19:46:46.439Z,31.13
2022-12-31T19:49:14.574Z,44.20
2022-12-31T19:51:41.713Z,13.95
2022-12-31T19:54:08.715Z,12.93
2022-12-31T19:56:35.676Z,7.63
2022-12-31T19:59:07.385Z,14.75
2022-12-31T20:01:34.184Z,7.05
2022-12-31T20:04:01.086Z,3.10
2022-12-31T20:06:27.710Z,3.17
2022-12-31T20:08:54.319Z,3.72
2022-12-31T20:11:22.605Z,3.58
2022-12-31T20:13:50.738Z,2.83
2022-12-31T20:16:20.049Z,2.92
2022-12-31T20:18:50.524Z,2.72
2022-12-31T20:21:26.432Z,3.97
2022-12-31T20:23:54.643Z,3.38
2022-12-31T20:26:23.284Z,4.07
2022-12-31T20:28:50.814Z,2.55
2022-12-31T20:31:20.150Z,3.05
2022-12-31T20:33:46.800Z,3.80
2022-12-31T20:36:15.935Z,2.83
2022-12-31T20:38:42.981Z,3.17
2022-12-31T20:41:21.003Z,4.38
2022-12-31T20:43:50.298Z,2.10
2022-12-31T20:46:25.176Z,3.08
2022-12-31T20:48:53.909Z,3.17
2022-12-31T20:51:21.804Z,3.85
2022-12-31T20:53:51.070Z,6.57
2022-12-31T20:56:21.019Z,2.92
2022-12-31T20:58:48.195Z,5.28
2022-12-31T21:01:16.113Z,4.15
2022-12-31T21:06:31.889Z,3.20
2022-12-31T21:09:02.722Z,2.97
2022-12-31T21:11:50.343Z,3.88
2022-12-31T21:14:16.944Z,2.92
2022-12-31T21:16:43.596Z,3.00
2022-12-31T21:19:10.616Z,2.67
2022-12-31T21:21:37.434Z,2.78
2022-12-31T21:24:04.490Z,2.75
2022-12-31T21:26:31.082Z,2.42
2022-12-31T21:28:57.764Z,6.05
2022-12-31T21:31:24.381Z,2.63
2022-12-31T21:33:51.082Z,3.13
2022-12-31T21:36:17.745Z,3.17
2022-12-31T21:38:45.147Z,3.35
2022-12-31T21:41:34.145Z,2.88
2022-12-31T21:44:04.177Z,3.22
2022-12-31T21:46:31.036Z,4.43
2022-12-31T21:48:59.180Z,3.03
2022-12-31T21:51:28.791Z,2.85
2022-12-31T21:53:58.106Z,2.75
2022-12-31T21:56:24.735Z,2.90
2022-12-31T21:59:16.888Z,2.45
2022-12-31T22:02:02.513Z,2.30
2022-12-31T22:07:16.601Z,2.45
2022-12-31T22:09:43.191Z,2.60
2022-12-31T22:12:09.859Z,2.50
2022-12-31T22:14:36.412Z,2.38
2022-12-31T22:17:07.618Z,2.38
2022-12-31T22:19:54.533Z,2.15
2022-12-31T22:22:23.688Z,2.45
2022-12-31T22:24:50.271Z,3.03
2022-12-31T22:27:29.622Z,2.90
2022-12-31T22:29:56.496Z,5.53
2022-12-31T22:32:25.158Z,3.35
2022-12-31T22:34:51.708Z,2.60
2022-12-31T22:37:54.310Z,3.03
2022-12-31T22:40:07.789Z,2.35
2022-12-31T22:42:34.440Z,2.40
2022-12-31T22:45:02.112Z,2.53
2022-12-31T22:47:28.776Z,2.63
2022-12-31T22:49:57.685Z,3.10
2022-12-31T22:52:26.565Z,2.53
2022-12-31T22:54:53.212Z,2.53
2022-12-31T22:57:20.294Z,2.33
2022-12-31T22:59:47.335Z,2.28
2022-12-31T23:02:14.148Z,4.75
2022-12-31T23:04:43.605Z,17.42
2022-12-31T23:07:10.548Z,62.88
2022-12-31T23:09:55.669Z,77.45
2022-12-31T23:12:22.341Z,69.78
2022-12-31T23:15:07.209Z,142.30
2022-12-31T23:17:52.556Z,63.63
2022-12-31T23:20:41.483Z,133.43
2022-12-31T23:23:12.773Z,130.65
2022-12-31T23:25:50.578Z,85.07
2022-12-31T23:28:18.604Z,34.78
2022-12-31T23:30:45.413Z,37.45
2022-12-31T23:33:23.483Z,17.27
2022-12-31T23:35:50.411Z,21.70
2022-12-31T23:38:18.701Z,30.60
2022-12-31T23:40:47.498Z,11.95
2022-12-31T23:43:22.543Z,61.35
2022-12-31T23:45:53.046Z,42.63
2022-12-31T23:48:20.087Z,30.67
2022-12-31T23:50:53.025Z,26.30
2022-12-31T23:53:20.324Z,12.38
2022-12-31T23:55:46.911Z,30.48
2022-12-31T23:58:13.531Z,13.68
